DLH5MR EDDM-EDDF
Flight info
| Callsign | DLH5MR |
|---|---|
| Flight time | N/A |
| Altitude | 24000 |
| Route | GIVMI6E/08R GIVMI Y101 ERNAS T161 DEBHI DEBHI1B |
| Aircraft | A320/M-SDE3FGHIRWY/LB1 |
Departure
| Time | N/A |
|---|---|
| Airport | Munich Airport (EDDM) |
Arrival
| Time | 2026-04-15 20:57 |
|---|---|
| Airport | Frankfurt Main Airport (EDDF) |
| Time | Latitude | Longitude | Altitude | Speed | Heading |
|---|---|---|---|---|---|
| 2026-04-15 20:35 | 49.23322 | 10.66986 | 24225 ft | 386 kts | 313° |
| 2026-04-15 20:35 | 49.25180 | 10.64021 | 24226 ft | 386 kts | 312° |
| 2026-04-15 20:36 | 49.27030 | 10.61040 | 24227 ft | 386 kts | 312° |
| 2026-04-15 20:36 | 49.28875 | 10.58069 | 24224 ft | 386 kts | 312° |
| 2026-04-15 20:36 | 49.30730 | 10.55097 | 24222 ft | 385 kts | 312° |
| 2026-04-15 20:36 | 49.32580 | 10.52152 | 23850 ft | 381 kts | 313° |
| 2026-04-15 20:37 | 49.34418 | 10.49241 | 23278 ft | 378 kts | 313° |
| 2026-04-15 20:37 | 49.36194 | 10.46297 | 22699 ft | 374 kts | 307° |
| 2026-04-15 20:37 | 49.37713 | 10.43076 | 22159 ft | 371 kts | 304° |
| 2026-04-15 20:37 | 49.39192 | 10.39847 | 21618 ft | 368 kts | 304° |
| 2026-04-15 20:38 | 49.40656 | 10.36637 | 21110 ft | 366 kts | 304° |
| 2026-04-15 20:38 | 49.42112 | 10.33443 | 20615 ft | 364 kts | 304° |
| 2026-04-15 20:38 | 49.43556 | 10.30274 | 20131 ft | 361 kts | 304° |
| 2026-04-15 20:38 | 49.44992 | 10.27117 | 19658 ft | 359 kts | 303° |
| 2026-04-15 20:39 | 49.46417 | 10.23982 | 19198 ft | 357 kts | 303° |
| 2026-04-15 20:39 | 49.47834 | 10.20858 | 18751 ft | 355 kts | 303° |
| 2026-04-15 20:39 | 49.49244 | 10.17755 | 18283 ft | 353 kts | 303° |
| 2026-04-15 20:39 | 49.50645 | 10.14668 | 17789 ft | 351 kts | 303° |
| 2026-04-15 20:40 | 49.52035 | 10.11604 | 17317 ft | 348 kts | 303° |
| 2026-04-15 20:40 | 49.53406 | 10.08612 | 16863 ft | 346 kts | 307° |
| 2026-04-15 20:40 | 49.54988 | 10.05764 | 16393 ft | 344 kts | 310° |
| 2026-04-15 20:40 | 49.56558 | 10.03060 | 15952 ft | 342 kts | 310° |
| 2026-04-15 20:41 | 49.58154 | 10.00363 | 15521 ft | 340 kts | 311° |
| 2026-04-15 20:41 | 49.59749 | 9.97681 | 15087 ft | 338 kts | 311° |
| 2026-04-15 20:41 | 49.61327 | 9.95015 | 14659 ft | 336 kts | 311° |
| 2026-04-15 20:41 | 49.62890 | 9.92353 | 14242 ft | 334 kts | 310° |
| 2026-04-15 20:42 | 49.64440 | 9.89704 | 13810 ft | 332 kts | 310° |
| 2026-04-15 20:42 | 49.65979 | 9.87070 | 13347 ft | 330 kts | 310° |
| 2026-04-15 20:42 | 49.67509 | 9.84443 | 12883 ft | 328 kts | 310° |
| 2026-04-15 20:42 | 49.69028 | 9.81829 | 12436 ft | 326 kts | 310° |
| 2026-04-15 20:43 | 49.70559 | 9.79198 | 11983 ft | 324 kts | 310° |
| 2026-04-15 20:43 | 49.72040 | 9.76653 | 11541 ft | 322 kts | 310° |
| 2026-04-15 20:43 | 49.73532 | 9.74086 | 11239 ft | 321 kts | 310° |
| 2026-04-15 20:43 | 49.75023 | 9.71515 | 11200 ft | 321 kts | 310° |
| 2026-04-15 20:44 | 49.76515 | 9.68931 | 11203 ft | 322 kts | 310° |
| 2026-04-15 20:44 | 49.78008 | 9.66345 | 11199 ft | 322 kts | 310° |
| 2026-04-15 20:44 | 49.79483 | 9.63793 | 10849 ft | 319 kts | 310° |
| 2026-04-15 20:44 | 49.80961 | 9.61245 | 10458 ft | 316 kts | 310° |
| 2026-04-15 20:45 | 49.82400 | 9.58758 | 10346 ft | 304 kts | 310° |
| 2026-04-15 20:45 | 49.83782 | 9.56367 | 10223 ft | 293 kts | 310° |
| 2026-04-15 20:45 | 49.85118 | 9.54052 | 10030 ft | 285 kts | 310° |
| 2026-04-15 20:45 | 49.86424 | 9.51776 | 9694 ft | 282 kts | 310° |
| 2026-04-15 20:46 | 49.87718 | 9.49508 | 9310 ft | 280 kts | 310° |
| 2026-04-15 20:46 | 49.89007 | 9.47251 | 8924 ft | 279 kts | 310° |
| 2026-04-15 20:46 | 49.90289 | 9.45009 | 8540 ft | 277 kts | 310° |
| 2026-04-15 20:46 | 49.91565 | 9.42783 | 8143 ft | 276 kts | 310° |
| 2026-04-15 20:47 | 49.92839 | 9.40559 | 7763 ft | 274 kts | 310° |
| 2026-04-15 20:47 | 49.94060 | 9.38424 | 7392 ft | 273 kts | 310° |
| 2026-04-15 20:47 | 49.95317 | 9.36225 | 7191 ft | 272 kts | 310° |
| 2026-04-15 20:47 | 49.96576 | 9.34026 | 7193 ft | 273 kts | 310° |
| 2026-04-15 20:48 | 49.97840 | 9.31818 | 7196 ft | 274 kts | 310° |
| 2026-04-15 20:48 | 49.99101 | 9.29606 | 7197 ft | 274 kts | 310° |
| 2026-04-15 20:48 | 50.00360 | 9.27389 | 7195 ft | 274 kts | 310° |
| 2026-04-15 20:48 | 50.01622 | 9.25172 | 7196 ft | 274 kts | 310° |
| 2026-04-15 20:49 | 50.02883 | 9.22963 | 6930 ft | 272 kts | 310° |
| 2026-04-15 20:49 | 50.04134 | 9.20766 | 6526 ft | 271 kts | 310° |
| 2026-04-15 20:49 | 50.05382 | 9.18572 | 6109 ft | 270 kts | 310° |
| 2026-04-15 20:49 | 50.06619 | 9.16393 | 5698 ft | 268 kts | 310° |
| 2026-04-15 20:50 | 50.07850 | 9.14220 | 5308 ft | 267 kts | 310° |
| 2026-04-15 20:50 | 50.09074 | 9.12059 | 4901 ft | 265 kts | 310° |
| 2026-04-15 20:50 | 50.10192 | 9.09808 | 4483 ft | 261 kts | 295° |
| 2026-04-15 20:50 | 50.10800 | 9.07166 | 4086 ft | 258 kts | 285° |
| 2026-04-15 20:51 | 50.11182 | 9.05022 | 4008 ft | 253 kts | 284° |
| 2026-04-15 20:51 | 50.11624 | 9.02464 | 4002 ft | 235 kts | 284° |
| 2026-04-15 20:51 | 50.12034 | 9.00094 | 4004 ft | 219 kts | 284° |
| 2026-04-15 20:51 | 50.12430 | 8.97823 | 4006 ft | 215 kts | 284° |
| 2026-04-15 20:52 | 50.12601 | 8.95535 | 4009 ft | 213 kts | 262° |
| 2026-04-15 20:52 | 50.12198 | 8.93322 | 4008 ft | 213 kts | 249° |
| 2026-04-15 20:52 | 50.11687 | 8.91160 | 4007 ft | 213 kts | 249° |
| 2026-04-15 20:52 | 50.11178 | 8.88993 | 4008 ft | 213 kts | 249° |
| 2026-04-15 20:53 | 50.10671 | 8.86838 | 4005 ft | 207 kts | 250° |
| 2026-04-15 20:53 | 50.10183 | 8.84763 | 3848 ft | 202 kts | 249° |
| 2026-04-15 20:53 | 50.09700 | 8.82709 | 3602 ft | 202 kts | 250° |
| 2026-04-15 20:53 | 50.09216 | 8.80655 | 3344 ft | 202 kts | 250° |
| 2026-04-15 20:54 | 50.08731 | 8.78598 | 3088 ft | 201 kts | 250° |
| 2026-04-15 20:54 | 50.08258 | 8.76596 | 2812 ft | 193 kts | 250° |
| 2026-04-15 20:54 | 50.07801 | 8.74663 | 2539 ft | 187 kts | 249° |
| 2026-04-15 20:54 | 50.07359 | 8.72792 | 2308 ft | 180 kts | 250° |
| 2026-04-15 20:55 | 50.06943 | 8.71035 | 2069 ft | 166 kts | 249° |
| 2026-04-15 20:55 | 50.06560 | 8.69420 | 1866 ft | 151 kts | 249° |
| 2026-04-15 20:55 | 50.06213 | 8.67952 | 1655 ft | 140 kts | 249° |
| 2026-04-15 20:55 | 50.05885 | 8.66570 | 1468 ft | 137 kts | 249° |
| 2026-04-15 20:56 | 50.05557 | 8.65189 | 1287 ft | 136 kts | 249° |
| 2026-04-15 20:56 | 50.05231 | 8.63810 | 1089 ft | 136 kts | 249° |
| 2026-04-15 20:56 | 50.04902 | 8.62435 | 915 ft | 136 kts | 249° |
| 2026-04-15 20:56 | 50.04573 | 8.61053 | 736 ft | 136 kts | 249° |
| 2026-04-15 20:57 | 50.04246 | 8.59675 | 546 ft | 136 kts | 248° |
| 2026-04-15 20:57 | 50.03921 | 8.58298 | 372 ft | 135 kts | 248° |
| 2026-04-15 20:57 | 50.03636 | 8.57110 | 361 ft | 93 kts | 249° |
| 2026-04-15 20:57 | 50.03472 | 8.56420 | 361 ft | 43 kts | 249° |
| 2026-04-15 20:58 | 50.03430 | 8.56136 | 362 ft | 22 kts | 275° |
| 2026-04-15 20:58 | 50.03456 | 8.55894 | 360 ft | 23 kts | 280° |
| 2026-04-15 20:58 | 50.03477 | 8.55701 | 361 ft | 4 kts | 279° |
| 2026-04-15 20:58 | 50.03480 | 8.55667 | 364 ft | 3 kts | 279° |
| 2026-04-15 20:59 | 50.03488 | 8.55596 | 361 ft | 11 kts | 279° |
| 2026-04-15 20:59 | 50.03520 | 8.55515 | 362 ft | 0 kts | 345° |
| 2026-04-15 20:59 | 50.03524 | 8.55529 | 364 ft | 4 kts | 79° |
| 2026-04-15 20:59 | 50.03537 | 8.55657 | 367 ft | 18 kts | 73° |
| 2026-04-15 21:00 | 50.03583 | 8.55852 | 365 ft | 20 kts | 69° |
| 2026-04-15 21:00 | 50.03634 | 8.56067 | 364 ft | 22 kts | 70° |
| 2026-04-15 21:00 | 50.03690 | 8.56304 | 363 ft | 24 kts | 70° |
| 2026-04-15 21:00 | 50.03746 | 8.56536 | 366 ft | 26 kts | 70° |
| 2026-04-15 21:01 | 50.03811 | 8.56808 | 366 ft | 27 kts | 68° |
| 2026-04-15 21:01 | 50.03875 | 8.57076 | 364 ft | 27 kts | 70° |
| 2026-04-15 21:01 | 50.03941 | 8.57352 | 366 ft | 28 kts | 70° |
| 2026-04-15 21:01 | 50.04011 | 8.57647 | 369 ft | 30 kts | 69° |
| 2026-04-15 21:02 | 50.04082 | 8.57944 | 369 ft | 28 kts | 70° |
| 2026-04-15 21:02 | 50.04131 | 8.58116 | 364 ft | 13 kts | 50° |
| 2026-04-15 21:02 | 50.04213 | 8.58189 | 363 ft | 17 kts | 24° |
| 2026-04-15 21:02 | 50.04333 | 8.58175 | 364 ft | 17 kts | 338° |
| 2026-04-15 21:03 | 50.04440 | 8.58115 | 367 ft | 15 kts | 341° |
| 2026-04-15 21:03 | 50.04490 | 8.58086 | 367 ft | 3 kts | 339° |
| 2026-04-15 21:03 | 50.04496 | 8.58082 | 366 ft | 0 kts | 339° |
| 2026-04-15 21:04 | 50.04497 | 8.58082 | 366 ft | 0 kts | 339° |
| 2026-04-15 21:04 | 50.04505 | 8.58077 | 368 ft | 6 kts | 340° |
| 2026-04-15 21:05 | 50.04580 | 8.58034 | 365 ft | 13 kts | 339° |
| 2026-04-15 21:05 | 50.04661 | 8.57986 | 363 ft | 15 kts | 339° |
| 2026-04-15 21:05 | 50.04776 | 8.57920 | 363 ft | 17 kts | 339° |
| 2026-04-15 21:05 | 50.04850 | 8.57826 | 363 ft | 13 kts | 296° |
| 2026-04-15 21:06 | 50.04896 | 8.57759 | 363 ft | 9 kts | 3° |
| 2026-04-15 21:06 | 50.04941 | 8.57785 | 363 ft | 3 kts | 22° |
| 2026-04-15 21:06 | 50.04947 | 8.57789 | 363 ft | 0 kts | 22° |